sensor_id;sensor_type;location;lat;lon;timestamp;temperature;humidity
68378;DHT22;55322;48.146;11.516;2024-01-30T00:00:59;-0.40;89.26
68378;DHT22;55322;48.146;11.516;2024-01-30T00:03:24;-0.47;89.75
68378;DHT22;55322;48.146;11.516;2024-01-30T00:05:49;-0.41;89.75
68378;DHT22;55322;48.146;11.516;2024-01-30T00:08:15;-0.38;89.93
68378;DHT22;55322;48.146;11.516;2024-01-30T00:10:40;-0.42;89.90
68378;DHT22;55322;48.146;11.516;2024-01-30T00:13:05;-0.45;89.89
68378;DHT22;55322;48.146;11.516;2024-01-30T00:15:31;-0.51;89.79
68378;DHT22;55322;48.146;11.516;2024-01-30T00:17:56;-0.55;89.74
68378;DHT22;55322;48.146;11.516;2024-01-30T00:20:22;-0.57;89.93
68378;DHT22;55322;48.146;11.516;2024-01-30T00:22:47;-0.58;89.78
68378;DHT22;55322;48.146;11.516;2024-01-30T00:25:13;-0.58;89.76
68378;DHT22;55322;48.146;11.516;2024-01-30T00:27:38;-0.64;89.64
68378;DHT22;55322;48.146;11.516;2024-01-30T00:30:04;-0.64;89.70
68378;DHT22;55322;48.146;11.516;2024-01-30T00:32:30;-0.62;89.93
68378;DHT22;55322;48.146;11.516;2024-01-30T00:34:55;-0.61;89.88
68378;DHT22;55322;48.146;11.516;2024-01-30T00:37:20;-0.64;89.71
68378;DHT22;55322;48.146;11.516;2024-01-30T00:39:46;-0.71;89.72
68378;DHT22;55322;48.146;11.516;2024-01-30T00:42:11;-0.69;89.84
68378;DHT22;55322;48.146;11.516;2024-01-30T00:44:37;-0.71;90.17
68378;DHT22;55322;48.146;11.516;2024-01-30T00:47:04;-0.68;90.38
68378;DHT22;55322;48.146;11.516;2024-01-30T00:49:29;-0.71;90.39
68378;DHT22;55322;48.146;11.516;2024-01-30T00:51:54;-0.76;90.54
68378;DHT22;55322;48.146;11.516;2024-01-30T00:54:20;-0.73;90.48
68378;DHT22;55322;48.146;11.516;2024-01-30T00:56:45;-0.78;90.31
68378;DHT22;55322;48.146;11.516;2024-01-30T00:59:11;-0.73;90.49
68378;DHT22;55322;48.146;11.516;2024-01-30T01:01:36;-0.68;90.64
68378;DHT22;55322;48.146;11.516;2024-01-30T01:04:02;-0.64;90.56
68378;DHT22;55322;48.146;11.516;2024-01-30T01:06:27;-0.65;90.38
68378;DHT22;55322;48.146;11.516;2024-01-30T01:08:52;-0.64;90.29
68378;DHT22;55322;48.146;11.516;2024-01-30T01:11:18;-0.60;90.27
68378;DHT22;55322;48.146;11.516;2024-01-30T01:13:43;-0.61;90.23
68378;DHT22;55322;48.146;11.516;2024-01-30T01:16:09;-0.61;90.28
68378;DHT22;55322;48.146;11.516;2024-01-30T01:18:34;-0.62;90.39
68378;DHT22;55322;48.146;11.516;2024-01-30T01:20:59;-0.69;90.27
68378;DHT22;55322;48.146;11.516;2024-01-30T01:23:25;-0.72;90.27
68378;DHT22;55322;48.146;11.516;2024-01-30T01:25:51;-0.76;90.40
68378;DHT22;55322;48.146;11.516;2024-01-30T01:28:16;-0.78;90.56
68378;DHT22;55322;48.146;11.516;2024-01-30T01:30:42;-0.75;90.51
68378;DHT22;55322;48.146;11.516;2024-01-30T01:33:07;-0.73;90.49
68378;DHT22;55322;48.146;11.516;2024-01-30T01:35:33;-0.78;90.52
68378;DHT22;55322;48.146;11.516;2024-01-30T01:37:58;-0.79;90.58
68378;DHT22;55322;48.146;11.516;2024-01-30T01:40:26;-0.76;90.64
68378;DHT22;55322;48.146;11.516;2024-01-30T01:42:53;-0.71;90.80
68378;DHT22;55322;48.146;11.516;2024-01-30T01:45:19;-0.71;90.78
68378;DHT22;55322;48.146;11.516;2024-01-30T01:47:47;-0.72;90.90
68378;DHT22;55322;48.146;11.516;2024-01-30T01:50:14;-0.76;90.75
68378;DHT22;55322;48.146;11.516;2024-01-30T01:52:43;-0.79;90.82
68378;DHT22;55322;48.146;11.516;2024-01-30T01:55:09;-0.76;90.82
68378;DHT22;55322;48.146;11.516;2024-01-30T01:57:35;-0.78;90.84
68378;DHT22;55322;48.146;11.516;2024-01-30T02:00:01;-0.79;90.66
68378;DHT22;55322;48.146;11.516;2024-01-30T02:02:30;-0.79;90.68
68378;DHT22;55322;48.146;11.516;2024-01-30T02:04:57;-0.76;90.76
68378;DHT22;55322;48.146;11.516;2024-01-30T02:07:23;-0.73;90.96
68378;DHT22;55322;48.146;11.516;2024-01-30T02:09:49;-0.76;90.66
68378;DHT22;55322;48.146;11.516;2024-01-30T02:12:14;-0.81;90.64
68378;DHT22;55322;48.146;11.516;2024-01-30T02:14:47;-0.85;90.69
68378;DHT22;55322;48.146;11.516;2024-01-30T02:17:13;-0.86;90.93
68378;DHT22;55322;48.146;11.516;2024-01-30T02:19:42;-0.85;91.05
68378;DHT22;55322;48.146;11.516;2024-01-30T02:22:07;-0.82;91.04
68378;DHT22;55322;48.146;11.516;2024-01-30T02:24:33;-0.82;90.95
68378;DHT22;55322;48.146;11.516;2024-01-30T02:26:58;-0.89;90.98
68378;DHT22;55322;48.146;11.516;2024-01-30T02:29:24;-0.93;91.03
68378;DHT22;55322;48.146;11.516;2024-01-30T02:31:49;-0.96;91.17
68378;DHT22;55322;48.146;11.516;2024-01-30T02:34:15;-0.99;91.36
68378;DHT22;55322;48.146;11.516;2024-01-30T02:36:43;-0.93;91.61
68378;DHT22;55322;48.146;11.516;2024-01-30T02:39:09;-0.91;91.63
68378;DHT22;55322;48.146;11.516;2024-01-30T02:41:35;-0.88;91.56
68378;DHT22;55322;48.146;11.516;2024-01-30T02:44:00;-0.85;91.57
68378;DHT22;55322;48.146;11.516;2024-01-30T02:46:26;-0.76;91.60
68378;DHT22;55322;48.146;11.516;2024-01-30T02:48:51;-0.61;91.12
68378;DHT22;55322;48.146;11.516;2024-01-30T02:51:17;-0.60;90.56
68378;DHT22;55322;48.146;11.516;2024-01-30T02:53:42;-0.64;90.10
68378;DHT22;55322;48.146;11.516;2024-01-30T02:56:07;-0.71;90.22
68378;DHT22;55322;48.146;11.516;2024-01-30T02:58:35;-0.75;90.48
68378;DHT22;55322;48.146;11.516;2024-01-30T03:01:01;-0.78;90.83
68378;DHT22;55322;48.146;11.516;2024-01-30T03:03:27;-0.83;90.67
68378;DHT22;55322;48.146;11.516;2024-01-30T03:05:52;-0.88;90.56
68378;DHT22;55322;48.146;11.516;2024-01-30T03:08:17;-0.93;90.82
68378;DHT22;55322;48.146;11.516;2024-01-30T03:10:43;-0.89;90.96
68378;DHT22;55322;48.146;11.516;2024-01-30T03:13:08;-0.88;90.98
68378;DHT22;55322;48.146;11.516;2024-01-30T03:15:33;-0.85;91.06
68378;DHT22;55322;48.146;11.516;2024-01-30T03:17:59;-0.82;90.94
68378;DHT22;55322;48.146;11.516;2024-01-30T03:20:24;-0.83;91.01
68378;DHT22;55322;48.146;11.516;2024-01-30T03:22:50;-0.81;90.89
68378;DHT22;55322;48.146;11.516;2024-01-30T03:25:15;-0.78;90.92
68378;DHT22;55322;48.146;11.516;2024-01-30T03:27:40;-0.79;90.99
68378;DHT22;55322;48.146;11.516;2024-01-30T03:30:06;-0.82;90.84
68378;DHT22;55322;48.146;11.516;2024-01-30T03:32:32;-0.81;90.73
68378;DHT22;55322;48.146;11.516;2024-01-30T03:34:57;-0.78;90.79
68378;DHT22;55322;48.146;11.516;2024-01-30T03:37:23;-0.76;90.68
68378;DHT22;55322;48.146;11.516;2024-01-30T03:39:49;-0.72;90.66
68378;DHT22;55322;48.146;11.516;2024-01-30T03:42:14;-0.72;90.59
68378;DHT22;55322;48.146;11.516;2024-01-30T03:44:40;-0.71;90.54
68378;DHT22;55322;48.146;11.516;2024-01-30T03:47:05;-0.76;90.26
68378;DHT22;55322;48.146;11.516;2024-01-30T03:49:31;-0.83;90.20
68378;DHT22;55322;48.146;11.516;2024-01-30T03:51:56;-0.88;90.43
68378;DHT22;55322;48.146;11.516;2024-01-30T03:54:21;-0.86;90.69
68378;DHT22;55322;48.146;11.516;2024-01-30T03:56:47;-0.88;90.76
68378;DHT22;55322;48.146;11.516;2024-01-30T03:59:12;-0.92;91.04
68378;DHT22;55322;48.146;11.516;2024-01-30T04:01:37;-0.93;90.93
68378;DHT22;55322;48.146;11.516;2024-01-30T04:04:03;-0.95;90.82
68378;DHT22;55322;48.146;11.516;2024-01-30T04:06:28;-0.93;90.96
68378;DHT22;55322;48.146;11.516;2024-01-30T04:08:54;-0.91;90.96
68378;DHT22;55322;48.146;11.516;2024-01-30T04:11:19;-0.92;91.37
68378;DHT22;55322;48.146;11.516;2024-01-30T04:13:45;-0.91;91.43
68378;DHT22;55322;48.146;11.516;2024-01-30T04:16:22;-0.93;91.37
68378;DHT22;55322;48.146;11.516;2024-01-30T04:18:48;-0.93;91.22
68378;DHT22;55322;48.146;11.516;2024-01-30T04:21:13;-0.93;91.27
68378;DHT22;55322;48.146;11.516;2024-01-30T04:23:40;-0.97;91.23
68378;DHT22;55322;48.146;11.516;2024-01-30T04:26:05;-1.02;91.56
68378;DHT22;55322;48.146;11.516;2024-01-30T04:28:31;-1.03;91.62
68378;DHT22;55322;48.146;11.516;2024-01-30T04:30:56;-1.07;91.34
68378;DHT22;55322;48.146;11.516;2024-01-30T04:33:22;-1.16;91.26
68378;DHT22;55322;48.146;11.516;2024-01-30T04:35:47;-1.17;91.41
68378;DHT22;55322;48.146;11.516;2024-01-30T04:38:12;-1.19;91.69
68378;DHT22;55322;48.146;11.516;2024-01-30T04:40:39;-1.20;91.72
68378;DHT22;55322;48.146;11.516;2024-01-30T04:43:05;-1.21;91.72
68378;DHT22;55322;48.146;11.516;2024-01-30T04:45:30;-1.25;91.88
68378;DHT22;55322;48.146;11.516;2024-01-30T04:47:55;-1.21;92.00
68378;DHT22;55322;48.146;11.516;2024-01-30T04:50:21;-1.26;92.02
68378;DHT22;55322;48.146;11.516;2024-01-30T04:52:46;-1.27;92.01
68378;DHT22;55322;48.146;11.516;2024-01-30T04:55:12;-1.30;92.06
68378;DHT22;55322;48.146;11.516;2024-01-30T04:57:37;-1.29;92.17
68378;DHT22;55322;48.146;11.516;2024-01-30T05:00:03;-1.33;92.21
68378;DHT22;55322;48.146;11.516;2024-01-30T05:02:30;-1.33;92.21
68378;DHT22;55322;48.146;11.516;2024-01-30T05:04:55;-1.36;92.47
68378;DHT22;55322;48.146;11.516;2024-01-30T05:07:21;-1.36;92.52
68378;DHT22;55322;48.146;11.516;2024-01-30T05:09:46;-1.39;92.50
68378;DHT22;55322;48.146;11.516;2024-01-30T05:12:12;-1.42;92.50
68378;DHT22;55322;48.146;11.516;2024-01-30T05:14:37;-1.47;92.58
68378;DHT22;55322;48.146;11.516;2024-01-30T05:17:03;-1.50;92.59
68378;DHT22;55322;48.146;11.516;2024-01-30T05:19:28;-1.50;92.81
68378;DHT22;55322;48.146;11.516;2024-01-30T05:21:54;-1.53;92.96
68378;DHT22;55322;48.146;11.516;2024-01-30T05:24:19;-1.57;92.90
68378;DHT22;55322;48.146;11.516;2024-01-30T05:26:44;-1.57;92.89
68378;DHT22;55322;48.146;11.516;2024-01-30T05:29:10;-1.58;92.72
68378;DHT22;55322;48.146;11.516;2024-01-30T05:31:35;-1.58;92.79
68378;DHT22;55322;48.146;11.516;2024-01-30T05:34:01;-1.56;92.88
68378;DHT22;55322;48.146;11.516;2024-01-30T05:36:27;-1.57;92.89
68378;DHT22;55322;48.146;11.516;2024-01-30T05:38:52;-1.58;93.05
68378;DHT22;55322;48.146;11.516;2024-01-30T05:41:18;-1.58;93.13
68378;DHT22;55322;48.146;11.516;2024-01-30T05:43:43;-1.61;93.01
68378;DHT22;55322;48.146;11.516;2024-01-30T05:46:09;-1.67;92.87
68378;DHT22;55322;48.146;11.516;2024-01-30T05:48:34;-1.68;92.81
68378;DHT22;55322;48.146;11.516;2024-01-30T05:51:01;-1.70;92.79
68378;DHT22;55322;48.146;11.516;2024-01-30T05:53:26;-1.72;92.89
68378;DHT22;55322;48.146;11.516;2024-01-30T05:55:52;-1.68;92.83
68378;DHT22;55322;48.146;11.516;2024-01-30T05:58:17;-1.70;92.81
68378;DHT22;55322;48.146;11.516;2024-01-30T06:00:42;-1.72;92.97
68378;DHT22;55322;48.146;11.516;2024-01-30T06:03:08;-1.74;92.97
68378;DHT22;55322;48.146;11.516;2024-01-30T06:05:33;-1.75;92.94
68378;DHT22;55322;48.146;11.516;2024-01-30T06:07:59;-1.74;92.97
68378;DHT22;55322;48.146;11.516;2024-01-30T06:10:24;-1.74;92.96
68378;DHT22;55322;48.146;11.516;2024-01-30T06:12:49;-1.74;93.00
68378;DHT22;55322;48.146;11.516;2024-01-30T06:15:15;-1.75;93.08
68378;DHT22;55322;48.146;11.516;2024-01-30T06:17:40;-1.75;93.08
68378;DHT22;55322;48.146;11.516;2024-01-30T06:20:06;-1.72;93.19
68378;DHT22;55322;48.146;11.516;2024-01-30T06:22:32;-1.72;93.18
68378;DHT22;55322;48.146;11.516;2024-01-30T06:24:57;-1.71;93.19
68378;DHT22;55322;48.146;11.516;2024-01-30T06:27:22;-1.66;93.26
68378;DHT22;55322;48.146;11.516;2024-01-30T06:29:48;-1.60;93.20
68378;DHT22;55322;48.146;11.516;2024-01-30T06:32:13;-1.57;93.12
68378;DHT22;55322;48.146;11.516;2024-01-30T06:34:38;-1.54;93.17
68378;DHT22;55322;48.146;11.516;2024-01-30T06:37:05;-1.50;93.15
68378;DHT22;55322;48.146;11.516;2024-01-30T06:39:30;-1.47;93.10
68378;DHT22;55322;48.146;11.516;2024-01-30T06:41:56;-1.43;92.96
68378;DHT22;55322;48.146;11.516;2024-01-30T06:44:21;-1.43;92.87
68378;DHT22;55322;48.146;11.516;2024-01-30T06:46:47;-1.43;92.82
68378;DHT22;55322;48.146;11.516;2024-01-30T06:49:12;-1.37;92.89
68378;DHT22;55322;48.146;11.516;2024-01-30T06:51:38;-1.32;92.97
68378;DHT22;55322;48.146;11.516;2024-01-30T06:54:03;-1.30;92.98
68378;DHT22;55322;48.146;11.516;2024-01-30T06:56:29;-1.23;92.95
68378;DHT22;55322;48.146;11.516;2024-01-30T06:58:55;-1.21;92.75
68378;DHT22;55322;48.146;11.516;2024-01-30T07:01:20;-1.19;92.76
68378;DHT22;55322;48.146;11.516;2024-01-30T07:03:46;-1.19;92.58
68378;DHT22;55322;48.146;11.516;2024-01-30T07:06:11;-1.19;92.36
68378;DHT22;55322;48.146;11.516;2024-01-30T07:08:37;-1.15;92.42
68378;DHT22;55322;48.146;11.516;2024-01-30T07:11:05;-1.15;92.49
68378;DHT22;55322;48.146;11.516;2024-01-30T07:13:30;-1.09;92.40
68378;DHT22;55322;48.146;11.516;2024-01-30T07:15:56;-1.05;92.41
68378;DHT22;55322;48.146;11.516;2024-01-30T07:18:21;-1.02;92.31
68378;DHT22;55322;48.146;11.516;2024-01-30T07:20:47;-0.96;92.18
68378;DHT22;55322;48.146;11.516;2024-01-30T07:23:13;-0.89;92.07
68378;DHT22;55322;48.146;11.516;2024-01-30T07:25:41;-0.85;92.04
68378;DHT22;55322;48.146;11.516;2024-01-30T07:28:07;-0.81;92.05
68378;DHT22;55322;48.146;11.516;2024-01-30T07:30:34;-0.76;91.85
68378;DHT22;55322;48.146;11.516;2024-01-30T07:33:00;-0.66;91.58
68378;DHT22;55322;48.146;11.516;2024-01-30T07:35:25;-0.61;91.57
68378;DHT22;55322;48.146;11.516;2024-01-30T07:37:50;-0.58;91.23
68378;DHT22;55322;48.146;11.516;2024-01-30T07:40:16;-0.50;90.95
68378;DHT22;55322;48.146;11.516;2024-01-30T07:42:42;-0.38;90.38
68378;DHT22;55322;48.146;11.516;2024-01-30T07:45:07;-0.31;90.39
68378;DHT22;55322;48.146;11.516;2024-01-30T07:47:33;-0.21;90.30
68378;DHT22;55322;48.146;11.516;2024-01-30T07:49:58;-0.15;90.35
68378;DHT22;55322;48.146;11.516;2024-01-30T07:52:24;0.02;89.76
68378;DHT22;55322;48.146;11.516;2024-01-30T07:54:50;0.77;88.65
68378;DHT22;55322;48.146;11.516;2024-01-30T07:57:15;2.14;85.07
68378;DHT22;55322;48.146;11.516;2024-01-30T07:59:42;3.63;80.54
68378;DHT22;55322;48.146;11.516;2024-01-30T08:02:09;4.84;75.26
68378;DHT22;55322;48.146;11.516;2024-01-30T08:04:35;5.79;69.51
68378;DHT22;55322;48.146;11.516;2024-01-30T08:07:00;6.78;67.07
68378;DHT22;55322;48.146;11.516;2024-01-30T08:09:26;7.48;64.49
68378;DHT22;55322;48.146;11.516;2024-01-30T08:11:51;8.14;60.98
68378;DHT22;55322;48.146;11.516;2024-01-30T08:14:17;8.83;58.00
68378;DHT22;55322;48.146;11.516;2024-01-30T08:16:42;9.19;56.74
68378;DHT22;55322;48.146;11.516;2024-01-30T08:19:07;9.10;56.75
68378;DHT22;55322;48.146;11.516;2024-01-30T08:21:33;9.80;55.22
68378;DHT22;55322;48.146;11.516;2024-01-30T08:24:03;9.75;54.95
68378;DHT22;55322;48.146;11.516;2024-01-30T08:26:28;9.93;56.02
68378;DHT22;55322;48.146;11.516;2024-01-30T08:28:54;9.78;56.12
68378;DHT22;55322;48.146;11.516;2024-01-30T08:31:19;9.90;54.69
68378;DHT22;55322;48.146;11.516;2024-01-30T08:33:44;10.07;54.68
68378;DHT22;55322;48.146;11.516;2024-01-30T08:36:10;10.35;54.81
68378;DHT22;55322;48.146;11.516;2024-01-30T08:38:35;10.63;53.69
68378;DHT22;55322;48.146;11.516;2024-01-30T08:41:00;10.79;50.95
68378;DHT22;55322;48.146;11.516;2024-01-30T08:43:26;10.96;52.14
68378;DHT22;55322;48.146;11.516;2024-01-30T08:45:51;11.35;51.60
68378;DHT22;55322;48.146;11.516;2024-01-30T08:48:17;11.57;50.64
68378;DHT22;55322;48.146;11.516;2024-01-30T08:50:43;11.71;51.05
68378;DHT22;55322;48.146;11.516;2024-01-30T08:53:08;12.11;46.70
68378;DHT22;55322;48.146;11.516;2024-01-30T08:55:33;12.59;47.65
68378;DHT22;55322;48.146;11.516;2024-01-30T08:57:59;12.94;46.74
68378;DHT22;55322;48.146;11.516;2024-01-30T09:00:24;12.83;47.66
68378;DHT22;55322;48.146;11.516;2024-01-30T09:02:50;13.18;45.78
68378;DHT22;55322;48.146;11.516;2024-01-30T09:05:15;13.47;44.64
68378;DHT22;55322;48.146;11.516;2024-01-30T09:07:40;13.30;47.63
68378;DHT22;55322;48.146;11.516;2024-01-30T09:10:06;13.07;45.70
68378;DHT22;55322;48.146;11.516;2024-01-30T09:12:32;13.24;45.93
68378;DHT22;55322;48.146;11.516;2024-01-30T09:14:57;13.41;44.23
68378;DHT22;55322;48.146;11.516;2024-01-30T09:17:22;13.58;45.85
68378;DHT22;55322;48.146;11.516;2024-01-30T09:19:48;13.54;44.61
68378;DHT22;55322;48.146;11.516;2024-01-30T09:22:13;13.65;43.10
68378;DHT22;55322;48.146;11.516;2024-01-30T09:24:40;13.75;43.40
68378;DHT22;55322;48.146;11.516;2024-01-30T09:27:05;14.16;42.47
68378;DHT22;55322;48.146;11.516;2024-01-30T09:29:31;14.32;42.94
68378;DHT22;55322;48.146;11.516;2024-01-30T09:31:59;14.15;44.28
68378;DHT22;55322;48.146;11.516;2024-01-30T09:34:25;14.61;40.17
68378;DHT22;55322;48.146;11.516;2024-01-30T09:36:50;14.73;37.92
68378;DHT22;55322;48.146;11.516;2024-01-30T09:39:15;14.91;37.52
68378;DHT22;55322;48.146;11.516;2024-01-30T09:44:37;15.10;38.54
68378;DHT22;55322;48.146;11.516;2024-01-30T09:47:03;15.14;39.12
68378;DHT22;55322;48.146;11.516;2024-01-30T09:49:34;15.17;38.63
68378;DHT22;55322;48.146;11.516;2024-01-30T09:52:05;15.23;36.96
68378;DHT22;55322;48.146;11.516;2024-01-30T09:54:30;15.30;36.26
68378;DHT22;55322;48.146;11.516;2024-01-30T09:56:57;15.46;36.06
68378;DHT22;55322;48.146;11.516;2024-01-30T09:59:22;15.46;38.57
68378;DHT22;55322;48.146;11.516;2024-01-30T10:01:49;15.51;37.39
68378;DHT22;55322;48.146;11.516;2024-01-30T10:04:15;15.30;35.64
68378;DHT22;55322;48.146;11.516;2024-01-30T10:06:40;15.30;35.82
68378;DHT22;55322;48.146;11.516;2024-01-30T10:09:05;15.24;35.49
68378;DHT22;55322;48.146;11.516;2024-01-30T10:11:31;15.48;37.25
68378;DHT22;55322;48.146;11.516;2024-01-30T10:13:56;15.73;38.20
68378;DHT22;55322;48.146;11.516;2024-01-30T10:16:21;16.03;36.50
68378;DHT22;55322;48.146;11.516;2024-01-30T10:18:47;16.30;36.51
68378;DHT22;55322;48.146;11.516;2024-01-30T10:21:12;16.47;37.45
68378;DHT22;55322;48.146;11.516;2024-01-30T10:23:38;16.80;35.96
68378;DHT22;55322;48.146;11.516;2024-01-30T10:26:07;16.67;33.98
68378;DHT22;55322;48.146;11.516;2024-01-30T10:28:33;15.35;34.59
68378;DHT22;55322;48.146;11.516;2024-01-30T10:31:02;15.52;39.06
68378;DHT22;55322;48.146;11.516;2024-01-30T10:33:31;15.96;36.82
68378;DHT22;55322;48.146;11.516;2024-01-30T10:36:04;16.43;36.32
68378;DHT22;55322;48.146;11.516;2024-01-30T10:38:30;16.70;36.81
68378;DHT22;55322;48.146;11.516;2024-01-30T10:40:57;16.94;33.08
68378;DHT22;55322;48.146;11.516;2024-01-30T10:43:23;17.11;33.33
68378;DHT22;55322;48.146;11.516;2024-01-30T10:45:53;16.80;33.47
68378;DHT22;55322;48.146;11.516;2024-01-30T10:48:22;16.21;34.86
68378;DHT22;55322;48.146;11.516;2024-01-30T10:50:52;16.37;35.30
68378;DHT22;55322;48.146;11.516;2024-01-30T10:53:21;16.53;33.38
68378;DHT22;55322;48.146;11.516;2024-01-30T10:55:48;17.11;36.24
68378;DHT22;55322;48.146;11.516;2024-01-30T10:58:16;17.32;35.78
68378;DHT22;55322;48.146;11.516;2024-01-30T11:00:42;17.69;35.36
68378;DHT22;55322;48.146;11.516;2024-01-30T11:03:08;17.76;31.21
68378;DHT22;55322;48.146;11.516;2024-01-30T11:05:34;18.01;33.58
68378;DHT22;55322;48.146;11.516;2024-01-30T11:08:11;17.75;31.50
68378;DHT22;55322;48.146;11.516;2024-01-30T11:10:47;17.96;32.53
68378;DHT22;55322;48.146;11.516;2024-01-30T11:13:16;17.66;31.44
68378;DHT22;55322;48.146;11.516;2024-01-30T11:15:41;17.80;33.59
68378;DHT22;55322;48.146;11.516;2024-01-30T11:18:06;17.66;33.00
68378;DHT22;55322;48.146;11.516;2024-01-30T11:20:32;17.83;33.29
68378;DHT22;55322;48.146;11.516;2024-01-30T11:22:58;17.87;34.08
68378;DHT22;55322;48.146;11.516;2024-01-30T11:25:25;17.50;33.56
68378;DHT22;55322;48.146;11.516;2024-01-30T11:27:55;17.66;33.18
68378;DHT22;55322;48.146;11.516;2024-01-30T11:30:30;17.73;34.44
68378;DHT22;55322;48.146;11.516;2024-01-30T11:33:00;17.10;34.45
68378;DHT22;55322;48.146;11.516;2024-01-30T11:35:26;16.67;35.99
68378;DHT22;55322;48.146;11.516;2024-01-30T11:37:52;15.70;35.84
68378;DHT22;55322;48.146;11.516;2024-01-30T11:40:19;15.62;38.04
68378;DHT22;55322;48.146;11.516;2024-01-30T11:42:45;15.51;36.08
68378;DHT22;55322;48.146;11.516;2024-01-30T11:45:12;15.55;37.12
68378;DHT22;55322;48.146;11.516;2024-01-30T11:47:38;15.75;37.03
68378;DHT22;55322;48.146;11.516;2024-01-30T11:50:04;15.89;37.27
68378;DHT22;55322;48.146;11.516;2024-01-30T11:52:33;15.88;36.90
68378;DHT22;55322;48.146;11.516;2024-01-30T11:54:58;15.66;37.35
68378;DHT22;55322;48.146;11.516;2024-01-30T11:57:23;15.70;38.04
68378;DHT22;55322;48.146;11.516;2024-01-30T11:59:49;15.89;37.24
68378;DHT22;55322;48.146;11.516;2024-01-30T12:02:17;15.93;35.44
68378;DHT22;55322;48.146;11.516;2024-01-30T12:04:43;15.61;35.71
68378;DHT22;55322;48.146;11.516;2024-01-30T12:07:08;15.98;36.99
68378;DHT22;55322;48.146;11.516;2024-01-30T12:09:34;16.27;35.68
68378;DHT22;55322;48.146;11.516;2024-01-30T12:11:59;16.37;37.23
68378;DHT22;55322;48.146;11.516;2024-01-30T12:14:26;16.61;35.12
68378;DHT22;55322;48.146;11.516;2024-01-30T12:16:51;16.85;32.44
68378;DHT22;55322;48.146;11.516;2024-01-30T12:19:26;16.54;35.96
68378;DHT22;55322;48.146;11.516;2024-01-30T12:21:56;15.65;35.68
68378;DHT22;55322;48.146;11.516;2024-01-30T12:24:24;15.65;35.44
68378;DHT22;55322;48.146;11.516;2024-01-30T12:26:50;15.41;37.49
68378;DHT22;55322;48.146;11.516;2024-01-30T12:29:15;15.23;39.50
68378;DHT22;55322;48.146;11.516;2024-01-30T12:31:42;14.91;37.57
68378;DHT22;55322;48.146;11.516;2024-01-30T12:34:07;14.74;39.95
68378;DHT22;55322;48.146;11.516;2024-01-30T12:36:34;14.46;42.28
68378;DHT22;55322;48.146;11.516;2024-01-30T12:38:59;14.53;39.02
68378;DHT22;55322;48.146;11.516;2024-01-30T12:41:26;14.70;38.90
68378;DHT22;55322;48.146;11.516;2024-01-30T12:43:55;14.84;38.61
68378;DHT22;55322;48.146;11.516;2024-01-30T12:46:25;14.80;36.89
68378;DHT22;55322;48.146;11.516;2024-01-30T12:48:50;14.77;38.30
68378;DHT22;55322;48.146;11.516;2024-01-30T12:51:16;14.61;37.69
68378;DHT22;55322;48.146;11.516;2024-01-30T12:53:41;14.34;37.33
68378;DHT22;55322;48.146;11.516;2024-01-30T12:56:07;14.20;37.06
68378;DHT22;55322;48.146;11.516;2024-01-30T12:58:32;14.36;40.05
68378;DHT22;55322;48.146;11.516;2024-01-30T13:00:57;14.43;39.58
68378;DHT22;55322;48.146;11.516;2024-01-30T13:03:23;14.50;38.94
68378;DHT22;55322;48.146;11.516;2024-01-30T13:05:48;14.66;37.68
68378;DHT22;55322;48.146;11.516;2024-01-30T13:08:14;14.93;36.76
68378;DHT22;55322;48.146;11.516;2024-01-30T13:10:39;15.18;35.19
68378;DHT22;55322;48.146;11.516;2024-01-30T13:13:04;15.25;36.44
68378;DHT22;55322;48.146;11.516;2024-01-30T13:15:30;15.35;38.21
68378;DHT22;55322;48.146;11.516;2024-01-30T13:17:55;15.41;35.87
68378;DHT22;55322;48.146;11.516;2024-01-30T13:20:20;15.36;36.28
68378;DHT22;55322;48.146;11.516;2024-01-30T13:22:47;15.04;35.03
68378;DHT22;55322;48.146;11.516;2024-01-30T13:25:14;14.94;35.58
68378;DHT22;55322;48.146;11.516;2024-01-30T13:27:40;14.79;36.75
68378;DHT22;55322;48.146;11.516;2024-01-30T13:30:07;14.77;36.08
68378;DHT22;55322;48.146;11.516;2024-01-30T13:32:33;14.61;37.91
68378;DHT22;55322;48.146;11.516;2024-01-30T13:34:58;14.30;38.64
68378;DHT22;55322;48.146;11.516;2024-01-30T13:37:24;14.28;41.75
68378;DHT22;55322;48.146;11.516;2024-01-30T13:39:50;14.12;41.16
68378;DHT22;55322;48.146;11.516;2024-01-30T13:42:15;13.94;40.73
68378;DHT22;55322;48.146;11.516;2024-01-30T13:44:41;13.85;37.68
68378;DHT22;55322;48.146;11.516;2024-01-30T13:47:08;13.82;38.69
68378;DHT22;55322;48.146;11.516;2024-01-30T13:49:33;13.77;37.58
68378;DHT22;55322;48.146;11.516;2024-01-30T13:51:59;13.64;39.19
68378;DHT22;55322;48.146;11.516;2024-01-30T13:54:24;13.47;38.43
68378;DHT22;55322;48.146;11.516;2024-01-30T13:56:50;13.30;43.44
68378;DHT22;55322;48.146;11.516;2024-01-30T13:59:15;13.23;41.04
68378;DHT22;55322;48.146;11.516;2024-01-30T14:01:40;13.02;42.36
68378;DHT22;55322;48.146;11.516;2024-01-30T14:04:06;12.87;44.69
68378;DHT22;55322;48.146;11.516;2024-01-30T14:06:31;12.83;41.70
68378;DHT22;55322;48.146;11.516;2024-01-30T14:08:56;12.62;45.80
68378;DHT22;55322;48.146;11.516;2024-01-30T14:11:23;12.48;46.39
68378;DHT22;55322;48.146;11.516;2024-01-30T14:13:48;12.29;50.58
68378;DHT22;55322;48.146;11.516;2024-01-30T14:16:14;12.21;48.42
68378;DHT22;55322;48.146;11.516;2024-01-30T14:18:39;12.14;48.56
68378;DHT22;55322;48.146;11.516;2024-01-30T14:21:06;12.05;46.68
68378;DHT22;55322;48.146;11.516;2024-01-30T14:23:32;12.05;50.44
68378;DHT22;55322;48.146;11.516;2024-01-30T14:25:58;11.94;50.71
68378;DHT22;55322;48.146;11.516;2024-01-30T14:28:23;11.79;49.05
68378;DHT22;55322;48.146;11.516;2024-01-30T14:30:49;11.71;48.51
68378;DHT22;55322;48.146;11.516;2024-01-30T14:33:14;11.64;51.90
68378;DHT22;55322;48.146;11.516;2024-01-30T14:35:40;11.60;50.76
68378;DHT22;55322;48.146;11.516;2024-01-30T14:38:05;11.61;47.50
68378;DHT22;55322;48.146;11.516;2024-01-30T14:40:32;11.54;48.43
68378;DHT22;55322;48.146;11.516;2024-01-30T14:42:58;11.47;48.26
68378;DHT22;55322;48.146;11.516;2024-01-30T14:45:23;11.44;51.10
68378;DHT22;55322;48.146;11.516;2024-01-30T14:47:49;11.34;52.31
68378;DHT22;55322;48.146;11.516;2024-01-30T14:50:15;11.28;52.34
68378;DHT22;55322;48.146;11.516;2024-01-30T14:52:42;11.22;52.24
68378;DHT22;55322;48.146;11.516;2024-01-30T14:55:07;11.20;52.13
68378;DHT22;55322;48.146;11.516;2024-01-30T14:57:34;11.19;52.93
68378;DHT22;55322;48.146;11.516;2024-01-30T15:00:00;11.12;49.81
68378;DHT22;55322;48.146;11.516;2024-01-30T15:02:25;11.10;51.66
68378;DHT22;55322;48.146;11.516;2024-01-30T15:04:51;11.06;54.13
68378;DHT22;55322;48.146;11.516;2024-01-30T15:07:16;10.97;56.48
68378;DHT22;55322;48.146;11.516;2024-01-30T15:09:41;10.88;52.70
68378;DHT22;55322;48.146;11.516;2024-01-30T15:12:07;10.86;53.19